sensor_id;sensor_type;location;lat;lon;timestamp;P1;durP1;ratioP1;P2;durP2;ratioP2
3747;SDS011;1889;50.058;8.688;2023-12-29T00:01:18;2.00;;;1.90;;
3747;SDS011;1889;50.058;8.688;2023-12-29T00:03:47;2.00;;;1.90;;
3747;SDS011;1889;50.058;8.688;2023-12-29T00:06:16;2.85;;;1.92;;
3747;SDS011;1889;50.058;8.688;2023-12-29T00:08:46;1.87;;;1.67;;
3747;SDS011;1889;50.058;8.688;2023-12-29T00:11:24;3.05;;;2.20;;
3747;SDS011;1889;50.058;8.688;2023-12-29T00:13:49;2.37;;;2.05;;
3747;SDS011;1889;50.058;8.688;2023-12-29T00:16:18;1.98;;;1.77;;
3747;SDS011;1889;50.058;8.688;2023-12-29T00:18:47;1.90;;;1.80;;
3747;SDS011;1889;50.058;8.688;2023-12-29T00:21:17;2.12;;;1.92;;
3747;SDS011;1889;50.058;8.688;2023-12-29T00:23:46;2.00;;;1.90;;
3747;SDS011;1889;50.058;8.688;2023-12-29T00:26:16;1.70;;;1.60;;
3747;SDS011;1889;50.058;8.688;2023-12-29T00:28:46;2.22;;;1.82;;
3747;SDS011;1889;50.058;8.688;2023-12-29T00:31:15;3.17;;;1.87;;
3747;SDS011;1889;50.058;8.688;2023-12-29T00:33:45;2.17;;;1.90;;
3747;SDS011;1889;50.058;8.688;2023-12-29T00:36:15;1.50;;;1.40;;
3747;SDS011;1889;50.058;8.688;2023-12-29T00:38:45;1.80;;;1.55;;
3747;SDS011;1889;50.058;8.688;2023-12-29T00:41:14;2.37;;;1.87;;
3747;SDS011;1889;50.058;8.688;2023-12-29T00:43:44;2.27;;;1.47;;
3747;SDS011;1889;50.058;8.688;2023-12-29T00:46:14;2.22;;;2.00;;
3747;SDS011;1889;50.058;8.688;2023-12-29T00:48:46;1.92;;;1.80;;
3747;SDS011;1889;50.058;8.688;2023-12-29T00:51:15;1.65;;;1.52;;
3747;SDS011;1889;50.058;8.688;2023-12-29T00:53:44;1.80;;;1.50;;
3747;SDS011;1889;50.058;8.688;2023-12-29T00:56:14;1.67;;;1.50;;
3747;SDS011;1889;50.058;8.688;2023-12-29T00:58:43;1.75;;;1.50;;
3747;SDS011;1889;50.058;8.688;2023-12-29T01:01:13;4.10;;;1.80;;
3747;SDS011;1889;50.058;8.688;2023-12-29T01:03:42;1.65;;;1.55;;
3747;SDS011;1889;50.058;8.688;2023-12-29T01:06:11;1.77;;;1.67;;
3747;SDS011;1889;50.058;8.688;2023-12-29T01:08:41;2.95;;;1.70;;
3747;SDS011;1889;50.058;8.688;2023-12-29T01:11:10;1.80;;;1.55;;
3747;SDS011;1889;50.058;8.688;2023-12-29T01:13:39;1.50;;;1.40;;
3747;SDS011;1889;50.058;8.688;2023-12-29T01:16:09;1.92;;;1.55;;
3747;SDS011;1889;50.058;8.688;2023-12-29T01:18:38;3.22;;;1.57;;
3747;SDS011;1889;50.058;8.688;2023-12-29T01:21:07;1.65;;;1.50;;
3747;SDS011;1889;50.058;8.688;2023-12-29T01:23:37;2.08;;;1.70;;
3747;SDS011;1889;50.058;8.688;2023-12-29T01:26:06;3.62;;;1.60;;
3747;SDS011;1889;50.058;8.688;2023-12-29T01:28:35;1.65;;;1.55;;
3747;SDS011;1889;50.058;8.688;2023-12-29T01:31:05;1.77;;;1.67;;
3747;SDS011;1889;50.058;8.688;2023-12-29T01:33:35;1.60;;;1.50;;
3747;SDS011;1889;50.058;8.688;2023-12-29T01:36:05;3.20;;;1.70;;
3747;SDS011;1889;50.058;8.688;2023-12-29T01:38:34;1.85;;;1.52;;
3747;SDS011;1889;50.058;8.688;2023-12-29T01:41:04;4.08;;;1.82;;
3747;SDS011;1889;50.058;8.688;2023-12-29T01:43:33;2.17;;;1.47;;
3747;SDS011;1889;50.058;8.688;2023-12-29T01:46:02;1.62;;;1.40;;
3747;SDS011;1889;50.058;8.688;2023-12-29T01:48:32;2.02;;;1.60;;
3747;SDS011;1889;50.058;8.688;2023-12-29T01:51:01;1.80;;;1.60;;
3747;SDS011;1889;50.058;8.688;2023-12-29T01:53:31;1.80;;;1.60;;
3747;SDS011;1889;50.058;8.688;2023-12-29T01:56:00;3.33;;;1.67;;
3747;SDS011;1889;50.058;8.688;2023-12-29T01:58:30;1.92;;;1.30;;
3747;SDS011;1889;50.058;8.688;2023-12-29T02:01:00;1.87;;;1.60;;
3747;SDS011;1889;50.058;8.688;2023-12-29T02:03:30;1.82;;;1.70;;
3747;SDS011;1889;50.058;8.688;2023-12-29T02:06:00;2.35;;;1.50;;
3747;SDS011;1889;50.058;8.688;2023-12-29T02:08:30;2.00;;;1.45;;
3747;SDS011;1889;50.058;8.688;2023-12-29T02:11:00;1.70;;;1.60;;
3747;SDS011;1889;50.058;8.688;2023-12-29T02:13:31;2.65;;;1.52;;
3747;SDS011;1889;50.058;8.688;2023-12-29T02:16:05;5.42;;;2.02;;
3747;SDS011;1889;50.058;8.688;2023-12-29T02:18:53;1.37;;;1.27;;
3747;SDS011;1889;50.058;8.688;2023-12-29T02:21:25;2.33;;;1.50;;
3747;SDS011;1889;50.058;8.688;2023-12-29T02:23:55;2.17;;;1.50;;
3747;SDS011;1889;50.058;8.688;2023-12-29T02:26:24;3.00;;;1.65;;
3747;SDS011;1889;50.058;8.688;2023-12-29T02:28:57;3.98;;;1.62;;
3747;SDS011;1889;50.058;8.688;2023-12-29T02:31:29;1.67;;;1.47;;
3747;SDS011;1889;50.058;8.688;2023-12-29T02:34:01;3.55;;;1.50;;
3747;SDS011;1889;50.058;8.688;2023-12-29T02:36:33;2.75;;;1.35;;
3747;SDS011;1889;50.058;8.688;2023-12-29T02:39:05;1.72;;;1.30;;
3747;SDS011;1889;50.058;8.688;2023-12-29T02:41:34;2.25;;;1.37;;
3747;SDS011;1889;50.058;8.688;2023-12-29T02:44:05;1.50;;;1.32;;
3747;SDS011;1889;50.058;8.688;2023-12-29T02:46:35;2.75;;;1.87;;
3747;SDS011;1889;50.058;8.688;2023-12-29T02:49:04;1.70;;;1.60;;
3747;SDS011;1889;50.058;8.688;2023-12-29T02:51:35;1.70;;;1.60;;
3747;SDS011;1889;50.058;8.688;2023-12-29T02:54:04;1.35;;;1.17;;
3747;SDS011;1889;50.058;8.688;2023-12-29T02:56:34;4.42;;;1.52;;
3747;SDS011;1889;50.058;8.688;2023-12-29T02:59:04;1.45;;;1.35;;
3747;SDS011;1889;50.058;8.688;2023-12-29T03:01:33;1.67;;;1.57;;
3747;SDS011;1889;50.058;8.688;2023-12-29T03:04:02;1.77;;;1.20;;
3747;SDS011;1889;50.058;8.688;2023-12-29T03:06:32;1.80;;;1.60;;
3747;SDS011;1889;50.058;8.688;2023-12-29T03:09:01;1.92;;;1.42;;
3747;SDS011;1889;50.058;8.688;2023-12-29T03:11:30;2.00;;;1.45;;
3747;SDS011;1889;50.058;8.688;2023-12-29T03:14:00;3.83;;;1.62;;
3747;SDS011;1889;50.058;8.688;2023-12-29T03:16:29;2.02;;;1.35;;
3747;SDS011;1889;50.058;8.688;2023-12-29T03:18:58;2.33;;;1.55;;
3747;SDS011;1889;50.058;8.688;2023-12-29T03:21:28;1.37;;;1.27;;
3747;SDS011;1889;50.058;8.688;2023-12-29T03:23:57;1.95;;;1.32;;
3747;SDS011;1889;50.058;8.688;2023-12-29T03:26:26;2.67;;;1.45;;
3747;SDS011;1889;50.058;8.688;2023-12-29T03:28:55;2.75;;;1.45;;
3747;SDS011;1889;50.058;8.688;2023-12-29T03:31:25;1.98;;;1.50;;
3747;SDS011;1889;50.058;8.688;2023-12-29T03:33:54;1.40;;;1.25;;
3747;SDS011;1889;50.058;8.688;2023-12-29T03:36:23;2.15;;;1.47;;
3747;SDS011;1889;50.058;8.688;2023-12-29T03:38:53;2.60;;;1.37;;
3747;SDS011;1889;50.058;8.688;2023-12-29T03:41:22;3.42;;;1.60;;
3747;SDS011;1889;50.058;8.688;2023-12-29T03:43:51;3.33;;;1.95;;
3747;SDS011;1889;50.058;8.688;2023-12-29T03:46:21;2.95;;;1.30;;
3747;SDS011;1889;50.058;8.688;2023-12-29T03:48:51;3.72;;;1.35;;
3747;SDS011;1889;50.058;8.688;2023-12-29T03:51:20;2.45;;;1.45;;
3747;SDS011;1889;50.058;8.688;2023-12-29T03:53:50;2.08;;;1.40;;
3747;SDS011;1889;50.058;8.688;2023-12-29T03:56:19;2.98;;;1.50;;
3747;SDS011;1889;50.058;8.688;2023-12-29T03:58:48;1.70;;;1.60;;
3747;SDS011;1889;50.058;8.688;2023-12-29T04:01:17;2.45;;;1.30;;
3747;SDS011;1889;50.058;8.688;2023-12-29T04:03:47;1.92;;;1.22;;
3747;SDS011;1889;50.058;8.688;2023-12-29T04:06:16;2.50;;;1.55;;
3747;SDS011;1889;50.058;8.688;2023-12-29T04:08:46;1.30;;;1.20;;
3747;SDS011;1889;50.058;8.688;2023-12-29T04:11:15;2.22;;;1.12;;
3747;SDS011;1889;50.058;8.688;2023-12-29T04:13:44;3.35;;;1.40;;
3747;SDS011;1889;50.058;8.688;2023-12-29T04:16:13;2.58;;;1.50;;
3747;SDS011;1889;50.058;8.688;2023-12-29T04:18:44;3.30;;;1.22;;
3747;SDS011;1889;50.058;8.688;2023-12-29T04:21:14;2.05;;;1.62;;
3747;SDS011;1889;50.058;8.688;2023-12-29T04:23:43;3.22;;;1.50;;
3747;SDS011;1889;50.058;8.688;2023-12-29T04:26:12;2.30;;;1.27;;
3747;SDS011;1889;50.058;8.688;2023-12-29T04:28:42;1.40;;;1.30;;
3747;SDS011;1889;50.058;8.688;2023-12-29T04:31:11;2.62;;;1.50;;
3747;SDS011;1889;50.058;8.688;2023-12-29T04:33:40;2.02;;;1.52;;
3747;SDS011;1889;50.058;8.688;2023-12-29T04:36:11;2.47;;;1.42;;
3747;SDS011;1889;50.058;8.688;2023-12-29T04:38:41;4.22;;;1.50;;
3747;SDS011;1889;50.058;8.688;2023-12-29T04:41:16;2.42;;;1.30;;
3747;SDS011;1889;50.058;8.688;2023-12-29T04:43:42;2.20;;;1.40;;
3747;SDS011;1889;50.058;8.688;2023-12-29T04:46:11;5.95;;;1.57;;
3747;SDS011;1889;50.058;8.688;2023-12-29T04:48:40;1.62;;;1.50;;
3747;SDS011;1889;50.058;8.688;2023-12-29T04:51:09;2.12;;;1.22;;
3747;SDS011;1889;50.058;8.688;2023-12-29T04:53:39;1.32;;;1.22;;
3747;SDS011;1889;50.058;8.688;2023-12-29T04:56:08;1.77;;;1.67;;
3747;SDS011;1889;50.058;8.688;2023-12-29T04:58:37;1.90;;;1.40;;
3747;SDS011;1889;50.058;8.688;2023-12-29T05:01:07;1.40;;;1.30;;
3747;SDS011;1889;50.058;8.688;2023-12-29T05:03:36;2.55;;;1.55;;
3747;SDS011;1889;50.058;8.688;2023-12-29T05:06:05;3.30;;;1.52;;
3747;SDS011;1889;50.058;8.688;2023-12-29T05:08:35;2.58;;;1.20;;
3747;SDS011;1889;50.058;8.688;2023-12-29T05:11:04;1.30;;;1.20;;
3747;SDS011;1889;50.058;8.688;2023-12-29T05:13:33;3.77;;;1.80;;
3747;SDS011;1889;50.058;8.688;2023-12-29T05:16:03;3.15;;;1.25;;
3747;SDS011;1889;50.058;8.688;2023-12-29T05:18:32;1.77;;;1.27;;
3747;SDS011;1889;50.058;8.688;2023-12-29T05:21:01;1.47;;;1.35;;
3747;SDS011;1889;50.058;8.688;2023-12-29T05:23:31;2.58;;;1.25;;
3747;SDS011;1889;50.058;8.688;2023-12-29T05:26:00;2.80;;;1.37;;
3747;SDS011;1889;50.058;8.688;2023-12-29T05:28:29;1.25;;;1.10;;
3747;SDS011;1889;50.058;8.688;2023-12-29T05:30:59;1.20;;;1.10;;
3747;SDS011;1889;50.058;8.688;2023-12-29T05:33:30;2.27;;;1.25;;
3747;SDS011;1889;50.058;8.688;2023-12-29T05:36:05;2.15;;;1.40;;
3747;SDS011;1889;50.058;8.688;2023-12-29T05:38:35;1.60;;;1.40;;
3747;SDS011;1889;50.058;8.688;2023-12-29T05:41:06;1.65;;;1.55;;
3747;SDS011;1889;50.058;8.688;2023-12-29T05:43:35;2.80;;;1.67;;
3747;SDS011;1889;50.058;8.688;2023-12-29T05:46:11;2.08;;;1.62;;
3747;SDS011;1889;50.058;8.688;2023-12-29T05:48:40;3.17;;;1.80;;
3747;SDS011;1889;50.058;8.688;2023-12-29T05:51:10;2.12;;;1.30;;
3747;SDS011;1889;50.058;8.688;2023-12-29T05:53:41;1.40;;;1.30;;
3747;SDS011;1889;50.058;8.688;2023-12-29T05:56:11;2.25;;;1.30;;
3747;SDS011;1889;50.058;8.688;2023-12-29T05:58:41;1.90;;;1.50;;
3747;SDS011;1889;50.058;8.688;2023-12-29T06:01:11;2.98;;;1.20;;
3747;SDS011;1889;50.058;8.688;2023-12-29T06:03:40;1.98;;;1.42;;
3747;SDS011;1889;50.058;8.688;2023-12-29T06:06:10;2.58;;;1.50;;
3747;SDS011;1889;50.058;8.688;2023-12-29T06:08:39;2.37;;;1.45;;
3747;SDS011;1889;50.058;8.688;2023-12-29T06:11:08;1.92;;;1.30;;
3747;SDS011;1889;50.058;8.688;2023-12-29T06:13:39;2.92;;;1.40;;
3747;SDS011;1889;50.058;8.688;2023-12-29T06:16:08;2.12;;;1.57;;
3747;SDS011;1889;50.058;8.688;2023-12-29T06:18:38;1.85;;;1.55;;
3747;SDS011;1889;50.058;8.688;2023-12-29T06:21:07;2.22;;;1.47;;
3747;SDS011;1889;50.058;8.688;2023-12-29T06:23:36;3.27;;;1.72;;
3747;SDS011;1889;50.058;8.688;2023-12-29T06:26:13;1.60;;;1.30;;
3747;SDS011;1889;50.058;8.688;2023-12-29T06:28:38;1.95;;;1.30;;
3747;SDS011;1889;50.058;8.688;2023-12-29T06:31:07;1.65;;;1.35;;
3747;SDS011;1889;50.058;8.688;2023-12-29T06:33:40;2.12;;;1.50;;
3747;SDS011;1889;50.058;8.688;2023-12-29T06:36:13;2.20;;;1.42;;
3747;SDS011;1889;50.058;8.688;2023-12-29T06:38:42;1.95;;;1.60;;
3747;SDS011;1889;50.058;8.688;2023-12-29T06:41:13;2.72;;;1.65;;
3747;SDS011;1889;50.058;8.688;2023-12-29T06:43:42;2.35;;;1.82;;
3747;SDS011;1889;50.058;8.688;2023-12-29T06:46:13;2.47;;;1.40;;
3747;SDS011;1889;50.058;8.688;2023-12-29T06:48:42;1.70;;;1.50;;
3747;SDS011;1889;50.058;8.688;2023-12-29T06:51:15;3.40;;;1.50;;
3747;SDS011;1889;50.058;8.688;2023-12-29T06:53:46;1.60;;;1.40;;
3747;SDS011;1889;50.058;8.688;2023-12-29T06:56:15;3.02;;;1.50;;
3747;SDS011;1889;50.058;8.688;2023-12-29T06:58:45;1.30;;;1.10;;
3747;SDS011;1889;50.058;8.688;2023-12-29T07:01:15;1.50;;;1.40;;
3747;SDS011;1889;50.058;8.688;2023-12-29T07:03:44;2.70;;;1.40;;
3747;SDS011;1889;50.058;8.688;2023-12-29T07:06:13;2.67;;;1.20;;
3747;SDS011;1889;50.058;8.688;2023-12-29T07:08:43;2.00;;;1.62;;
3747;SDS011;1889;50.058;8.688;2023-12-29T07:11:12;1.62;;;1.52;;
3747;SDS011;1889;50.058;8.688;2023-12-29T07:13:41;1.65;;;1.50;;
3747;SDS011;1889;50.058;8.688;2023-12-29T07:16:11;2.50;;;1.60;;
3747;SDS011;1889;50.058;8.688;2023-12-29T07:18:40;1.65;;;1.20;;
3747;SDS011;1889;50.058;8.688;2023-12-29T07:21:10;1.20;;;1.10;;
3747;SDS011;1889;50.058;8.688;2023-12-29T07:23:39;3.72;;;1.65;;
3747;SDS011;1889;50.058;8.688;2023-12-29T07:26:09;2.08;;;1.40;;
3747;SDS011;1889;50.058;8.688;2023-12-29T07:28:38;1.75;;;1.60;;
3747;SDS011;1889;50.058;8.688;2023-12-29T07:31:08;1.30;;;1.20;;
3747;SDS011;1889;50.058;8.688;2023-12-29T07:33:37;1.60;;;1.50;;
3747;SDS011;1889;50.058;8.688;2023-12-29T07:36:06;1.62;;;1.40;;
3747;SDS011;1889;50.058;8.688;2023-12-29T07:38:36;1.92;;;1.47;;
3747;SDS011;1889;50.058;8.688;2023-12-29T07:41:05;1.32;;;1.10;;
3747;SDS011;1889;50.058;8.688;2023-12-29T07:43:35;1.85;;;1.20;;
3747;SDS011;1889;50.058;8.688;2023-12-29T07:46:04;1.95;;;1.40;;
3747;SDS011;1889;50.058;8.688;2023-12-29T07:48:33;2.92;;;1.80;;
3747;SDS011;1889;50.058;8.688;2023-12-29T07:51:04;1.70;;;1.22;;
3747;SDS011;1889;50.058;8.688;2023-12-29T07:53:34;1.72;;;1.40;;
3747;SDS011;1889;50.058;8.688;2023-12-29T07:56:03;4.33;;;1.52;;
3747;SDS011;1889;50.058;8.688;2023-12-29T07:58:33;1.32;;;1.22;;
3747;SDS011;1889;50.058;8.688;2023-12-29T08:01:02;2.27;;;1.47;;
3747;SDS011;1889;50.058;8.688;2023-12-29T08:03:32;1.85;;;1.55;;
3747;SDS011;1889;50.058;8.688;2023-12-29T08:06:01;2.95;;;1.07;;
3747;SDS011;1889;50.058;8.688;2023-12-29T08:08:30;1.40;;;1.15;;
3747;SDS011;1889;50.058;8.688;2023-12-29T08:11:00;1.02;;;0.98;;
3747;SDS011;1889;50.058;8.688;2023-12-29T08:13:29;4.78;;;1.00;;
3747;SDS011;1889;50.058;8.688;2023-12-29T08:15:58;1.67;;;1.40;;
3747;SDS011;1889;50.058;8.688;2023-12-29T08:18:28;1.50;;;1.30;;
3747;SDS011;1889;50.058;8.688;2023-12-29T08:20:57;2.25;;;1.50;;
3747;SDS011;1889;50.058;8.688;2023-12-29T08:23:27;1.87;;;1.32;;
3747;SDS011;1889;50.058;8.688;2023-12-29T08:25:57;2.37;;;1.45;;
3747;SDS011;1889;50.058;8.688;2023-12-29T08:28:26;1.47;;;1.20;;
3747;SDS011;1889;50.058;8.688;2023-12-29T08:30:55;2.47;;;1.40;;
3747;SDS011;1889;50.058;8.688;2023-12-29T08:33:25;3.05;;;1.50;;
3747;SDS011;1889;50.058;8.688;2023-12-29T08:35:54;2.80;;;1.30;;
3747;SDS011;1889;50.058;8.688;2023-12-29T08:38:25;1.20;;;1.07;;
3747;SDS011;1889;50.058;8.688;2023-12-29T08:40:56;2.12;;;1.10;;
3747;SDS011;1889;50.058;8.688;2023-12-29T08:43:25;2.70;;;1.40;;
3747;SDS011;1889;50.058;8.688;2023-12-29T08:45:55;2.05;;;1.20;;
3747;SDS011;1889;50.058;8.688;2023-12-29T08:48:24;1.40;;;1.10;;
3747;SDS011;1889;50.058;8.688;2023-12-29T08:50:53;1.35;;;1.20;;
3747;SDS011;1889;50.058;8.688;2023-12-29T08:53:23;4.65;;;1.52;;
3747;SDS011;1889;50.058;8.688;2023-12-29T08:55:52;1.10;;;0.88;;
3747;SDS011;1889;50.058;8.688;2023-12-29T08:58:22;3.47;;;1.25;;
3747;SDS011;1889;50.058;8.688;2023-12-29T09:00:51;1.65;;;1.10;;
3747;SDS011;1889;50.058;8.688;2023-12-29T09:03:20;2.27;;;1.20;;
3747;SDS011;1889;50.058;8.688;2023-12-29T09:05:50;3.08;;;1.40;;
3747;SDS011;1889;50.058;8.688;2023-12-29T09:08:19;1.50;;;1.20;;
3747;SDS011;1889;50.058;8.688;2023-12-29T09:10:48;2.20;;;1.12;;
3747;SDS011;1889;50.058;8.688;2023-12-29T09:13:18;1.47;;;1.22;;
3747;SDS011;1889;50.058;8.688;2023-12-29T09:15:48;3.00;;;1.00;;
3747;SDS011;1889;50.058;8.688;2023-12-29T09:18:18;1.50;;;1.00;;
3747;SDS011;1889;50.058;8.688;2023-12-29T09:20:47;1.57;;;1.10;;
3747;SDS011;1889;50.058;8.688;2023-12-29T09:23:16;1.50;;;1.07;;
3747;SDS011;1889;50.058;8.688;2023-12-29T09:25:46;1.00;;;0.90;;
3747;SDS011;1889;50.058;8.688;2023-12-29T09:28:15;1.65;;;1.00;;
3747;SDS011;1889;50.058;8.688;2023-12-29T09:30:44;2.77;;;1.20;;
3747;SDS011;1889;50.058;8.688;2023-12-29T09:33:15;1.72;;;1.00;;
3747;SDS011;1889;50.058;8.688;2023-12-29T09:35:44;2.40;;;1.10;;
3747;SDS011;1889;50.058;8.688;2023-12-29T09:38:14;2.17;;;1.20;;
3747;SDS011;1889;50.058;8.688;2023-12-29T09:40:43;2.42;;;1.20;;
3747;SDS011;1889;50.058;8.688;2023-12-29T09:43:14;3.30;;;1.12;;
3747;SDS011;1889;50.058;8.688;2023-12-29T09:45:44;3.12;;;1.20;;
3747;SDS011;1889;50.058;8.688;2023-12-29T09:48:16;1.02;;;0.90;;
3747;SDS011;1889;50.058;8.688;2023-12-29T09:50:49;2.98;;;1.10;;
3747;SDS011;1889;50.058;8.688;2023-12-29T09:53:20;1.62;;;0.80;;
3747;SDS011;1889;50.058;8.688;2023-12-29T09:55:49;2.40;;;0.90;;
3747;SDS011;1889;50.058;8.688;2023-12-29T09:58:21;3.08;;;1.07;;
3747;SDS011;1889;50.058;8.688;2023-12-29T10:00:52;1.87;;;0.98;;
3747;SDS011;1889;50.058;8.688;2023-12-29T10:03:22;3.17;;;1.27;;
3747;SDS011;1889;50.058;8.688;2023-12-29T10:05:51;2.60;;;1.30;;
3747;SDS011;1889;50.058;8.688;2023-12-29T10:08:24;2.30;;;1.00;;
3747;SDS011;1889;50.058;8.688;2023-12-29T10:10:57;2.22;;;1.20;;
3747;SDS011;1889;50.058;8.688;2023-12-29T10:13:28;3.02;;;1.22;;
3747;SDS011;1889;50.058;8.688;2023-12-29T10:16:08;1.25;;;1.00;;
3747;SDS011;1889;50.058;8.688;2023-12-29T10:18:51;1.82;;;1.22;;
3747;SDS011;1889;50.058;8.688;2023-12-29T10:21:17;3.70;;;1.37;;
3747;SDS011;1889;50.058;8.688;2023-12-29T10:26:20;2.60;;;1.12;;
3747;SDS011;1889;50.058;8.688;2023-12-29T10:28:52;2.67;;;0.90;;
3747;SDS011;1889;50.058;8.688;2023-12-29T10:31:22;2.35;;;1.22;;
3747;SDS011;1889;50.058;8.688;2023-12-29T10:33:52;1.45;;;1.02;;
3747;SDS011;1889;50.058;8.688;2023-12-29T10:36:22;1.25;;;1.15;;
3747;SDS011;1889;50.058;8.688;2023-12-29T10:39:05;1.10;;;1.00;;
3747;SDS011;1889;50.058;8.688;2023-12-29T10:41:35;3.75;;;0.90;;
3747;SDS011;1889;50.058;8.688;2023-12-29T10:44:06;4.80;;;0.93;;
3747;SDS011;1889;50.058;8.688;2023-12-29T10:46:36;1.57;;;1.20;;
3747;SDS011;1889;50.058;8.688;2023-12-29T10:49:11;1.12;;;0.98;;
3747;SDS011;1889;50.058;8.688;2023-12-29T10:51:42;1.30;;;0.90;;
3747;SDS011;1889;50.058;8.688;2023-12-29T10:54:18;1.07;;;0.90;;
3747;SDS011;1889;50.058;8.688;2023-12-29T10:57:02;2.00;;;1.00;;
3747;SDS011;1889;50.058;8.688;2023-12-29T10:59:32;1.27;;;1.17;;
3747;SDS011;1889;50.058;8.688;2023-12-29T11:02:01;1.82;;;1.00;;
3747;SDS011;1889;50.058;8.688;2023-12-29T11:04:31;2.08;;;0.88;;
3747;SDS011;1889;50.058;8.688;2023-12-29T11:07:02;2.20;;;1.10;;
3747;SDS011;1889;50.058;8.688;2023-12-29T11:09:32;4.85;;;1.50;;
3747;SDS011;1889;50.058;8.688;2023-12-29T11:12:02;1.90;;;0.90;;
3747;SDS011;1889;50.058;8.688;2023-12-29T11:14:34;1.62;;;0.93;;
3747;SDS011;1889;50.058;8.688;2023-12-29T11:17:04;1.15;;;0.82;;
3747;SDS011;1889;50.058;8.688;2023-12-29T11:19:36;1.87;;;1.30;;
3747;SDS011;1889;50.058;8.688;2023-12-29T11:22:06;1.42;;;0.98;;
3747;SDS011;1889;50.058;8.688;2023-12-29T11:24:38;1.15;;;1.05;;
3747;SDS011;1889;50.058;8.688;2023-12-29T11:27:07;1.30;;;1.00;;
3747;SDS011;1889;50.058;8.688;2023-12-29T11:29:39;1.05;;;0.80;;
3747;SDS011;1889;50.058;8.688;2023-12-29T11:32:19;1.57;;;1.00;;
3747;SDS011;1889;50.058;8.688;2023-12-29T11:34:50;3.77;;;1.10;;
3747;SDS011;1889;50.058;8.688;2023-12-29T11:40:33;1.62;;;0.82;;
3747;SDS011;1889;50.058;8.688;2023-12-29T11:43:00;1.87;;;1.00;;
3747;SDS011;1889;50.058;8.688;2023-12-29T11:45:33;1.62;;;1.15;;
3747;SDS011;1889;50.058;8.688;2023-12-29T11:48:03;1.75;;;0.90;;
3747;SDS011;1889;50.058;8.688;2023-12-29T11:50:33;2.83;;;1.20;;
3747;SDS011;1889;50.058;8.688;2023-12-29T11:53:06;4.95;;;2.80;;
3747;SDS011;1889;50.058;8.688;2023-12-29T11:55:38;2.35;;;1.07;;
3747;SDS011;1889;50.058;8.688;2023-12-29T11:58:23;2.10;;;0.98;;
3747;SDS011;1889;50.058;8.688;2023-12-29T12:00:55;1.30;;;0.80;;
3747;SDS011;1889;50.058;8.688;2023-12-29T12:03:26;1.52;;;1.10;;
3747;SDS011;1889;50.058;8.688;2023-12-29T12:05:56;4.10;;;1.40;;
3747;SDS011;1889;50.058;8.688;2023-12-29T12:08:28;1.77;;;1.10;;
3747;SDS011;1889;50.058;8.688;2023-12-29T12:11:41;1.35;;;1.05;;
3747;SDS011;1889;50.058;8.688;2023-12-29T12:14:06;1.80;;;1.00;;
3747;SDS011;1889;50.058;8.688;2023-12-29T12:19:13;2.67;;;1.20;;
3747;SDS011;1889;50.058;8.688;2023-12-29T12:21:47;3.15;;;1.20;;
3747;SDS011;1889;50.058;8.688;2023-12-29T12:24:19;2.67;;;1.10;;
3747;SDS011;1889;50.058;8.688;2023-12-29T12:26:48;2.37;;;1.00;;
3747;SDS011;1889;50.058;8.688;2023-12-29T12:29:18;3.27;;;1.00;;
3747;SDS011;1889;50.058;8.688;2023-12-29T12:31:54;1.92;;;0.93;;
3747;SDS011;1889;50.058;8.688;2023-12-29T12:34:24;0.90;;;0.90;;
3747;SDS011;1889;50.058;8.688;2023-12-29T12:36:53;6.17;;;1.10;;
3747;SDS011;1889;50.058;8.688;2023-12-29T12:39:24;3.05;;;1.10;;
3747;SDS011;1889;50.058;8.688;2023-12-29T12:41:54;1.37;;;0.90;;
3747;SDS011;1889;50.058;8.688;2023-12-29T12:44:24;2.98;;;0.90;;
3747;SDS011;1889;50.058;8.688;2023-12-29T12:46:56;1.50;;;0.90;;
3747;SDS011;1889;50.058;8.688;2023-12-29T12:49:27;2.62;;;0.82;;
3747;SDS011;1889;50.058;8.688;2023-12-29T12:51:58;1.25;;;0.90;;
3747;SDS011;1889;50.058;8.688;2023-12-29T12:54:27;1.85;;;1.07;;
3747;SDS011;1889;50.058;8.688;2023-12-29T12:56:57;1.87;;;0.78;;
3747;SDS011;1889;50.058;8.688;2023-12-29T12:59:27;0.82;;;0.70;;
3747;SDS011;1889;50.058;8.688;2023-12-29T13:01:57;1.72;;;0.78;;
3747;SDS011;1889;50.058;8.688;2023-12-29T13:04:26;4.15;;;1.07;;
3747;SDS011;1889;50.058;8.688;2023-12-29T13:06:56;2.35;;;1.00;;
3747;SDS011;1889;50.058;8.688;2023-12-29T13:09:25;2.47;;;0.72;;
3747;SDS011;1889;50.058;8.688;2023-12-29T13:12:07;1.92;;;0.80;;
3747;SDS011;1889;50.058;8.688;2023-12-29T13:14:40;1.52;;;0.78;;
3747;SDS011;1889;50.058;8.688;2023-12-29T13:17:10;1.55;;;0.70;;
3747;SDS011;1889;50.058;8.688;2023-12-29T13:19:41;2.45;;;0.62;;
3747;SDS011;1889;50.058;8.688;2023-12-29T13:22:11;1.87;;;0.72;;
3747;SDS011;1889;50.058;8.688;2023-12-29T13:24:44;0.75;;;0.75;;
3747;SDS011;1889;50.058;8.688;2023-12-29T13:27:14;1.02;;;0.60;;
3747;SDS011;1889;50.058;8.688;2023-12-29T13:29:43;1.37;;;0.88;;
3747;SDS011;1889;50.058;8.688;2023-12-29T13:32:15;1.07;;;0.65;;
3747;SDS011;1889;50.058;8.688;2023-12-29T13:35:05;1.70;;;0.60;;
3747;SDS011;1889;50.058;8.688;2023-12-29T13:37:37;1.37;;;0.60;;
3747;SDS011;1889;50.058;8.688;2023-12-29T13:40:16;1.42;;;0.90;;
3747;SDS011;1889;50.058;8.688;2023-12-29T13:42:47;0.70;;;0.70;;
3747;SDS011;1889;50.058;8.688;2023-12-29T13:45:19;0.82;;;0.60;;
3747;SDS011;1889;50.058;8.688;2023-12-29T13:47:49;2.85;;;0.70;;
3747;SDS011;1889;50.058;8.688;2023-12-29T13:50:19;1.87;;;0.80;;
3747;SDS011;1889;50.058;8.688;2023-12-29T13:52:49;1.00;;;0.95;;
3747;SDS011;1889;50.058;8.688;2023-12-29T13:55:21;0.62;;;0.62;;
3747;SDS011;1889;50.058;8.688;2023-12-29T13:57:52;0.60;;;0.60;;
3747;SDS011;1889;50.058;8.688;2023-12-29T14:00:22;1.37;;;0.65;;
3747;SDS011;1889;50.058;8.688;2023-12-29T14:03:01;1.00;;;0.80;;
3747;SDS011;1889;50.058;8.688;2023-12-29T14:05:43;0.70;;;0.70;;
3747;SDS011;1889;50.058;8.688;2023-12-29T14:08:19;0.60;;;0.60;;
3747;SDS011;1889;50.058;8.688;2023-12-29T14:10:53;0.78;;;0.65;;
3747;SDS011;1889;50.058;8.688;2023-12-29T14:13:23;1.22;;;0.60;;
3747;SDS011;1889;50.058;8.688;2023-12-29T14:15:52;0.68;;;0.55;;
3747;SDS011;1889;50.058;8.688;2023-12-29T14:29:26;1.02;;;1.02;;
3747;SDS011;1889;50.058;8.688;2023-12-29T14:31:55;0.53;;;0.53;;
3747;SDS011;1889;50.058;8.688;2023-12-29T14:34:27;0.78;;;0.60;;
3747;SDS011;1889;50.058;8.688;2023-12-29T14:36:56;0.57;;;0.57;;
3747;SDS011;1889;50.058;8.688;2023-12-29T14:39:27;0.65;;;0.55;;
3747;SDS011;1889;50.058;8.688;2023-12-29T14:41:56;2.20;;;0.90;;
3747;SDS011;1889;50.058;8.688;2023-12-29T14:44:25;0.68;;;0.68;;
3747;SDS011;1889;50.058;8.688;2023-12-29T14:46:55;1.57;;;0.62;;
3747;SDS011;1889;50.058;8.688;2023-12-29T14:49:24;2.05;;;0.80;;
3747;SDS011;1889;50.058;8.688;2023-12-29T14:51:54;2.17;;;0.72;;
3747;SDS011;1889;50.058;8.688;2023-12-29T14:54:24;1.60;;;0.80;;
3747;SDS011;1889;50.058;8.688;2023-12-29T14:56:53;1.40;;;0.70;;
3747;SDS011;1889;50.058;8.688;2023-12-29T14:59:22;1.45;;;0.70;;
3747;SDS011;1889;50.058;8.688;2023-12-29T15:01:52;1.45;;;0.75;;
3747;SDS011;1889;50.058;8.688;2023-12-29T15:04:22;0.65;;;0.62;;
3747;SDS011;1889;50.058;8.688;2023-12-29T15:06:51;1.75;;;0.70;;
3747;SDS011;1889;50.058;8.688;2023-12-29T15:09:20;0.88;;;0.60;;
3747;SDS011;1889;50.058;8.688;2023-12-29T15:11:51;1.42;;;0.70;;
3747;SDS011;1889;50.058;8.688;2023-12-29T15:14:21;0.57;;;0.50;;
3747;SDS011;1889;50.058;8.688;2023-12-29T15:16:51;1.85;;;0.90;;
3747;SDS011;1889;50.058;8.688;2023-12-29T15:19:20;0.93;;;0.50;;
3747;SDS011;1889;50.058;8.688;2023-12-29T15:21:50;1.22;;;0.47;;
3747;SDS011;1889;50.058;8.688;2023-12-29T15:24:21;0.90;;;0.75;;
3747;SDS011;1889;50.058;8.688;2023-12-29T15:26:50;2.33;;;0.88;;
3747;SDS011;1889;50.058;8.688;2023-12-29T15:29:19;2.17;;;0.62;;
3747;SDS011;1889;50.058;8.688;2023-12-29T15:31:51;1.25;;;0.80;;
3747;SDS011;1889;50.058;8.688;2023-12-29T15:34:20;1.15;;;0.80;;
3747;SDS011;1889;50.058;8.688;2023-12-29T15:36:49;0.72;;;0.72;;
3747;SDS011;1889;50.058;8.688;2023-12-29T15:39:18;2.75;;;1.02;;
3747;SDS011;1889;50.058;8.688;2023-12-29T15:41:48;1.25;;;0.90;;
3747;SDS011;1889;50.058;8.688;2023-12-29T15:44:17;1.32;;;0.93;;
3747;SDS011;1889;50.058;8.688;2023-12-29T15:46:48;2.15;;;1.00;;
3747;SDS011;1889;50.058;8.688;2023-12-29T15:49:19;0.88;;;0.80;;
3747;SDS011;1889;50.058;8.688;2023-12-29T15:51:48;0.78;;;0.60;;
3747;SDS011;1889;50.058;8.688;2023-12-29T15:54:17;0.70;;;0.70;;